Time;durP1;ratioP1;P1;durP2;ratioP2;P2;SDS_P1;SDS_P2;PMS_P1;PMS_P2;Temp;Humidity;BMP_temperature;BMP_pressure;BME280_temperature;BME280_humidity;BME280_pressure;Samples;Min_cycle;Max_cycle;Signal;HPM_P1;HPM_P2
2022/04/08 00:02:07;;;;;;;2.63;0.65;;;19.50;48.60;;;;;;4540768;31;20613;-72
2022/04/08 00:04:33;;;;;;;2.90;0.80;;;19.50;49.60;;;;;;4520023;31;20076;-72
2022/04/08 00:06:59;;;;;;;2.50;0.90;;;19.50;48.60;;;;;;4525132;31;20091;-72
2022/04/08 00:09:25;;;;;;;2.05;0.85;;;19.50;48.60;;;;;;4525166;31;20509;-72
2022/04/08 00:11:51;;;;;;;2.80;0.75;;;19.50;48.60;;;;;;4524251;31;20533;-72
2022/04/08 00:14:20;;;;;;;2.63;0.73;;;19.50;48.60;;;;;;4525165;31;20210;-72
2022/04/08 00:16:46;;;;;;;2.78;0.73;;;19.40;48.50;;;;;;4524901;31;20083;-72
2022/04/08 00:19:13;;;;;;;2.80;0.63;;;19.40;48.50;;;;;;4510667;31;20090;-73
2022/04/08 00:21:38;;;;;;;3.85;1.02;;;19.50;48.60;;;;;;4524932;31;20080;-72
2022/04/08 00:24:05;;;;;;;3.78;0.98;;;19.40;48.50;;;;;;4518903;31;20168;-72
2022/04/08 00:26:31;;;;;;;1.73;0.50;;;19.40;48.50;;;;;;4540950;31;20103;-72
2022/04/08 00:28:57;;;;;;;2.45;0.68;;;19.40;48.50;;;;;;4526425;31;20053;-72
2022/04/08 00:31:22;;;;;;;4.50;0.90;;;19.40;48.50;;;;;;4540190;31;20227;-72
2022/04/08 00:33:48;;;;;;;1.98;0.70;;;19.40;48.50;;;;;;4540649;31;20084;-72
2022/04/08 00:36:14;;;;;;;4.07;0.82;;;19.40;48.50;;;;;;4541282;31;20138;-73
2022/04/08 00:38:40;;;;;;;1.45;0.55;;;19.40;48.50;;;;;;4526496;31;20094;-72
2022/04/08 00:41:06;;;;;;;3.45;0.90;;;19.40;48.50;;;;;;4540994;31;20115;-72
2022/04/08 00:43:33;;;;;;;2.63;0.80;;;19.40;48.50;;;;;;4540458;31;20366;-72
2022/04/08 00:46:00;;;;;;;4.22;1.00;;;19.30;48.50;;;;;;4526081;31;20402;-72
2022/04/08 00:48:27;;;;;;;4.00;0.77;;;19.40;48.50;;;;;;4540795;31;20068;-72
2022/04/08 00:50:53;;;;;;;3.53;0.88;;;19.40;48.50;;;;;;4540308;31;20420;-72
2022/04/08 00:53:20;;;;;;;2.97;0.55;;;19.30;48.40;;;;;;4540637;31;20600;-72
2022/04/08 00:55:46;;;;;;;2.72;0.85;;;19.30;48.50;;;;;;4540585;31;20092;-72
2022/04/08 00:58:13;;;;;;;3.13;0.80;;;19.30;48.40;;;;;;4526017;31;20087;-74
2022/04/08 01:00:40;;;;;;;2.85;1.00;;;19.30;48.40;;;;;;4512373;31;20098;-72
2022/04/08 01:03:06;;;;;;;2.47;0.60;;;19.30;48.40;;;;;;4526110;31;20083;-72
2022/04/08 01:05:32;;;;;;;2.88;1.10;;;19.30;48.40;;;;;;4540553;31;20687;-72
2022/04/08 01:08:02;;;;;;;2.17;0.60;;;19.20;48.30;;;;;;4537116;31;20246;-72
2022/04/08 01:10:28;;;;;;;1.85;0.80;;;19.30;48.40;;;;;;4532060;31;20131;-72
2022/04/08 01:12:54;;;;;;;1.48;0.70;;;19.30;48.40;;;;;;4530930;31;20064;-72
2022/04/08 01:15:21;;;;;;;3.17;0.57;;;19.30;48.40;;;;;;4530891;31;20060;-72
2022/04/08 01:17:47;;;;;;;4.00;0.73;;;19.30;48.40;;;;;;4531887;31;20083;-72
2022/04/08 01:20:13;;;;;;;2.35;0.90;;;19.20;48.30;;;;;;4530741;31;20084;-72
2022/04/08 01:22:39;;;;;;;2.00;0.60;;;19.20;48.40;;;;;;4530874;31;20103;-72
2022/04/08 01:25:10;;;;;;;2.53;0.70;;;19.20;48.40;;;;;;4523118;31;20506;-72
2022/04/08 01:27:37;;;;;;;1.77;0.60;;;19.20;48.30;;;;;;4523070;31;20085;-72
2022/04/08 01:30:05;;;;;;;2.25;0.70;;;19.20;48.30;;;;;;4508894;31;20080;-71
2022/04/08 01:32:31;;;;;;;4.13;1.00;;;19.20;48.30;;;;;;4522873;31;20438;-71
2022/04/08 01:34:57;;;;;;;3.72;0.90;;;19.20;48.30;;;;;;4524084;31;20072;-71
2022/04/08 01:37:23;;;;;;;3.10;0.93;;;19.20;48.30;;;;;;4496272;31;20087;-71
2022/04/08 01:39:49;;;;;;;2.88;0.80;;;19.10;48.30;;;;;;4509089;31;20092;-72
2022/04/08 01:42:16;;;;;;;1.92;0.57;;;19.20;48.30;;;;;;4523104;31;20065;-71
2022/04/08 01:44:44;;;;;;;3.22;0.57;;;19.20;48.40;;;;;;4523083;31;20424;-71
2022/04/08 01:47:10;;;;;;;2.17;0.90;;;19.10;48.30;;;;;;4536580;31;20509;-72
2022/04/08 01:49:37;;;;;;;2.53;0.68;;;19.10;48.30;;;;;;4524718;31;20574;-71
2022/04/08 01:52:03;;;;;;;4.25;0.60;;;19.10;48.30;;;;;;4523148;31;20115;-71
2022/04/08 01:54:29;;;;;;;3.17;0.70;;;19.10;48.30;;;;;;4538798;31;20072;-72
2022/04/08 01:56:55;;;;;;;2.72;0.90;;;19.10;48.30;;;;;;4539082;31;20052;-71
2022/04/08 01:59:20;;;;;;;2.08;0.60;;;19.10;48.30;;;;;;4538951;31;20057;-72
2022/04/08 02:01:46;;;;;;;2.97;0.88;;;19.10;48.30;;;;;;4524681;31;20139;-71
2022/04/08 02:04:12;;;;;;;2.42;0.52;;;19.10;49.20;;;;;;4539354;31;20061;-73
2022/04/08 02:06:40;;;;;;;3.50;0.90;;;19.10;48.30;;;;;;4539546;31;20165;-71
2022/04/08 02:09:11;;;;;;;2.58;0.73;;;19.10;48.30;;;;;;4525224;31;20222;-71
2022/04/08 02:11:38;;;;;;;2.83;0.77;;;19.00;48.20;;;;;;4525562;31;20071;-71
2022/04/08 02:14:04;;;;;;;2.17;0.80;;;19.00;48.20;;;;;;4531319;31;20079;-71
2022/04/08 02:16:30;;;;;;;4.25;1.08;;;19.00;48.20;;;;;;4538003;31;20076;-71
2022/04/08 02:18:57;;;;;;;3.38;0.70;;;19.00;48.20;;;;;;4538784;31;20068;-72
2022/04/08 02:21:23;;;;;;;3.15;0.70;;;19.00;48.20;;;;;;4538819;31;20084;-71
2022/04/08 02:23:50;;;;;;;3.15;0.63;;;19.00;48.20;;;;;;4538795;31;20098;-71
2022/04/08 02:26:16;;;;;;;4.13;1.08;;;19.00;48.20;;;;;;4538742;31;20216;-72
2022/04/08 02:28:46;;;;;;;3.03;0.80;;;19.00;48.20;;;;;;4539438;31;20559;-71
2022/04/08 02:31:13;;;;;;;3.47;0.90;;;19.00;48.20;;;;;;4539212;31;20083;-71
2022/04/08 02:33:39;;;;;;;4.40;0.80;;;19.00;48.20;;;;;;4539443;31;20147;-71
2022/04/08 02:36:06;;;;;;;5.00;0.90;;;19.00;48.20;;;;;;4528961;31;20094;-72
2022/04/08 02:38:32;;;;;;;2.42;0.90;;;19.00;48.20;;;;;;4524943;31;20092;-72
2022/04/08 02:40:58;;;;;;;2.88;0.82;;;18.90;48.10;;;;;;4525152;31;20076;-71
2022/04/08 02:43:24;;;;;;;4.63;1.10;;;18.90;48.30;;;;;;4512833;31;20088;-72
2022/04/08 02:45:50;;;;;;;2.28;0.90;;;18.90;48.30;;;;;;4524995;31;20148;-71
2022/04/08 02:48:16;;;;;;;2.90;0.80;;;18.90;48.30;;;;;;4527109;31;20130;-71
2022/04/08 02:50:42;;;;;;;2.85;0.90;;;18.90;48.40;;;;;;4525100;31;20091;-71
2022/04/08 02:53:08;;;;;;;4.50;1.00;;;18.90;48.30;;;;;;4524782;31;20116;-71
2022/04/08 02:55:35;;;;;;;4.90;1.00;;;18.90;48.40;;;;;;4524910;31;20072;-71
2022/04/08 02:58:02;;;;;;;4.70;1.10;;;18.90;48.40;;;;;;4524732;31;20103;-71
2022/04/08 03:00:28;;;;;;;5.03;1.02;;;18.90;48.40;;;;;;4510155;31;20096;-72
2022/04/08 03:02:54;;;;;;;2.25;0.68;;;18.90;48.40;;;;;;4510376;31;20165;-73
2022/04/08 03:05:20;;;;;;;6.38;0.90;;;18.90;48.30;;;;;;4524652;31;20488;-71
2022/04/08 03:07:46;;;;;;;3.28;1.08;;;18.90;48.30;;;;;;4525014;31;20068;-72
2022/04/08 03:10:13;;;;;;;5.22;0.98;;;18.90;48.30;;;;;;4510847;31;20056;-72
2022/04/08 03:12:39;;;;;;;4.45;1.20;;;18.90;48.30;;;;;;4525070;31;20213;-79
2022/04/08 03:15:05;;;;;;;3.97;1.23;;;18.80;48.10;;;;;;4525305;31;20316;-79
2022/04/08 03:17:31;;;;;;;4.30;0.80;;;18.80;48.00;;;;;;4525228;31;20076;-80
2022/04/08 03:19:57;;;;;;;3.83;1.00;;;18.80;48.00;;;;;;4510924;31;20409;-72
2022/04/08 03:22:24;;;;;;;5.70;1.02;;;18.80;48.10;;;;;;4526082;31;20153;-72
2022/04/08 03:24:51;;;;;;;5.93;1.23;;;18.80;48.10;;;;;;4511205;31;20611;-74
2022/04/08 03:27:17;;;;;;;3.45;1.05;;;18.80;48.10;;;;;;4539123;31;20091;-72
2022/04/08 03:29:43;;;;;;;3.85;1.15;;;18.80;48.00;;;;;;4541397;31;20167;-73
2022/04/08 03:32:09;;;;;;;4.05;1.10;;;18.80;48.00;;;;;;4540826;31;20453;-72
2022/04/08 03:34:35;;;;;;;2.67;0.57;;;18.80;48.00;;;;;;4524479;31;20461;-72
2022/04/08 03:37:01;;;;;;;2.95;0.73;;;18.70;47.90;;;;;;4541033;31;20072;-72
2022/04/08 03:39:27;;;;;;;4.07;0.90;;;18.80;48.00;;;;;;4541239;31;20052;-72
2022/04/08 03:41:56;;;;;;;4.85;1.10;;;18.80;47.90;;;;;;4540849;31;20072;-72
2022/04/08 03:44:22;;;;;;;3.42;1.00;;;18.80;48.00;;;;;;4526384;31;20065;-72
2022/04/08 03:46:48;;;;;;;3.90;0.88;;;18.70;48.00;;;;;;4525848;31;20405;-72
2022/04/08 03:49:15;;;;;;;4.88;0.90;;;18.70;48.00;;;;;;4541460;31;20234;-72
2022/04/08 03:51:45;;;;;;;3.40;1.08;;;18.70;47.90;;;;;;4527467;31;20094;-72
2022/04/08 03:54:12;;;;;;;2.45;0.73;;;18.70;47.90;;;;;;4541371;31;20375;-73
2022/04/08 03:56:41;;;;;;;3.75;0.90;;;18.70;48.10;;;;;;4541508;31;20079;-72
2022/04/08 03:59:08;;;;;;;2.50;0.60;;;18.70;47.90;;;;;;4541157;31;20098;-73
2022/04/08 04:01:34;;;;;;;4.18;0.80;;;18.70;47.90;;;;;;4500208;31;20525;-72
2022/04/08 04:03:59;;;;;;;5.25;0.90;;;18.70;47.90;;;;;;4527102;31;20522;-72
2022/04/08 04:06:25;;;;;;;1.98;0.60;;;18.70;47.90;;;;;;4541490;31;20508;-72
2022/04/08 04:08:51;;;;;;;2.60;0.70;;;18.70;47.90;;;;;;4526436;31;20083;-72
2022/04/08 04:11:17;;;;;;;3.00;0.85;;;18.70;47.90;;;;;;4540994;31;20087;-72
2022/04/08 04:13:44;;;;;;;3.05;0.90;;;18.70;47.90;;;;;;4526707;31;20064;-72
2022/04/08 04:16:10;;;;;;;5.57;1.25;;;18.60;47.80;;;;;;4526625;31;20072;-72
2022/04/08 04:18:36;;;;;;;3.25;1.00;;;18.60;47.80;;;;;;4541109;31;20512;-72
2022/04/08 04:21:02;;;;;;;2.75;0.75;;;18.60;47.80;;;;;;4526674;31;20068;-72
2022/04/08 04:23:28;;;;;;;2.72;0.80;;;18.60;47.70;;;;;;4540807;31;20210;-72
2022/04/08 04:25:54;;;;;;;2.42;0.70;;;18.60;47.70;;;;;;4541255;31;20068;-72
2022/04/08 04:28:20;;;;;;;5.13;0.93;;;18.60;47.70;;;;;;4540602;31;20063;-72
2022/04/08 04:30:46;;;;;;;2.28;0.73;;;18.60;47.70;;;;;;4540955;31;20213;-72
2022/04/08 04:33:11;;;;;;;3.25;0.90;;;18.60;47.70;;;;;;4526191;31;20201;-72
2022/04/08 04:35:38;;;;;;;3.00;0.85;;;18.60;47.70;;;;;;4513142;31;20171;-72
2022/04/08 04:38:04;;;;;;;3.22;0.70;;;18.50;47.60;;;;;;4540857;31;20130;-72
2022/04/08 04:40:30;;;;;;;3.00;1.00;;;18.50;47.60;;;;;;4526026;31;20092;-72
2022/04/08 04:42:56;;;;;;;2.78;0.80;;;18.60;47.60;;;;;;4541017;31;20075;-72
2022/04/08 04:45:23;;;;;;;2.00;0.68;;;18.60;47.60;;;;;;4541028;31;20615;-72
2022/04/08 04:47:49;;;;;;;3.00;0.70;;;18.50;47.50;;;;;;4540594;31;20167;-72
2022/04/08 04:50:14;;;;;;;2.20;0.95;;;18.50;47.50;;;;;;4526360;31;20271;-72
2022/04/08 04:52:41;;;;;;;2.45;0.90;;;18.50;47.50;;;;;;4525728;31;20088;-72
2022/04/08 04:55:08;;;;;;;3.30;0.73;;;18.50;47.40;;;;;;4541095;31;20091;-71
2022/04/08 04:57:34;;;;;;;2.67;0.65;;;18.50;47.40;;;;;;4540278;31;20102;-72
2022/04/08 05:00:01;;;;;;;4.93;0.82;;;18.50;47.40;;;;;;4526150;31;20060;-72
2022/04/08 05:02:27;;;;;;;2.78;0.88;;;18.50;47.40;;;;;;4525653;31;20108;-72
2022/04/08 05:04:52;;;;;;;4.55;0.70;;;18.50;47.30;;;;;;4525717;31;20082;-72
2022/04/08 05:07:18;;;;;;;4.05;0.90;;;18.50;47.30;;;;;;4540464;31;20092;-72
2022/04/08 05:09:44;;;;;;;3.38;0.80;;;18.40;47.20;;;;;;4525869;31;20498;-73
2022/04/08 05:12:10;;;;;;;2.72;0.60;;;18.50;47.30;;;;;;4540491;31;20194;-73
2022/04/08 05:14:36;;;;;;;2.92;0.60;;;18.40;47.20;;;;;;4525742;31;20148;-72
2022/04/08 05:17:03;;;;;;;4.80;0.93;;;18.40;47.20;;;;;;4540496;31;20087;-72
2022/04/08 05:19:29;;;;;;;4.43;0.73;;;18.40;47.20;;;;;;4540337;31;20161;-71
2022/04/08 05:21:55;;;;;;;3.35;0.90;;;18.40;48.20;;;;;;4525901;31;20072;-72
2022/04/08 05:24:21;;;;;;;2.85;0.80;;;18.40;47.30;;;;;;4540149;31;20198;-71
2022/04/08 05:26:47;;;;;;;2.63;0.80;;;18.40;47.30;;;;;;4540317;31;20204;-72
2022/04/08 05:29:13;;;;;;;1.83;0.60;;;18.40;47.20;;;;;;4539835;31;20072;-72
2022/04/08 05:31:38;;;;;;;3.65;0.82;;;18.40;47.30;;;;;;4525842;31;20510;-72
2022/04/08 05:34:05;;;;;;;4.18;0.75;;;18.40;47.20;;;;;;4525412;31;20087;-71
2022/04/08 05:36:31;;;;;;;2.17;0.77;;;18.40;47.20;;;;;;4525496;31;20076;-72
2022/04/08 05:38:57;;;;;;;2.53;0.60;;;18.40;47.20;;;;;;4540253;31;20091;-72
2022/04/08 05:41:23;;;;;;;2.88;0.73;;;18.40;47.30;;;;;;4525248;31;20064;-72
2022/04/08 05:43:49;;;;;;;2.10;0.60;;;18.40;47.30;;;;;;4540134;31;20164;-72
2022/04/08 05:46:15;;;;;;;1.58;0.50;;;18.40;47.30;;;;;;4525586;31;20056;-72
2022/04/08 05:48:41;;;;;;;2.78;0.80;;;18.30;47.30;;;;;;4539523;31;20102;-72
2022/04/08 05:51:07;;;;;;;1.88;0.60;;;18.30;47.30;;;;;;4540089;31;20076;-71
2022/04/08 05:53:36;;;;;;;2.38;0.77;;;18.30;47.30;;;;;;4539509;31;20105;-71
2022/04/08 05:56:03;;;;;;;1.55;0.47;;;18.30;47.30;;;;;;4525158;31;20393;-72
2022/04/08 05:58:29;;;;;;;2.22;0.70;;;18.30;47.40;;;;;;4539998;31;20775;-72
2022/04/08 06:00:55;;;;;;;2.90;0.60;;;18.30;47.40;;;;;;4539124;31;20313;-71
2022/04/08 06:03:21;;;;;;;2.90;0.70;;;18.30;47.40;;;;;;4539655;31;20489;-72
2022/04/08 06:05:47;;;;;;;1.52;0.47;;;18.30;47.40;;;;;;4540288;31;20209;-72
2022/04/08 06:08:13;;;;;;;1.77;0.50;;;18.30;47.40;;;;;;4525012;31;20084;-72
2022/04/08 06:10:39;;;;;;;1.48;0.60;;;18.30;47.40;;;;;;4539171;31;20158;-72
2022/04/08 06:13:04;;;;;;;1.50;0.50;;;18.30;47.50;;;;;;4539621;31;20064;-72
2022/04/08 06:15:31;;;;;;;1.67;0.47;;;18.20;47.40;;;;;;4525310;31;20056;-72
2022/04/08 06:17:58;;;;;;;2.70;0.63;;;18.20;47.40;;;;;;4539835;31;20092;-72
2022/04/08 06:20:25;;;;;;;2.13;0.40;;;18.20;47.40;;;;;;4539578;31;20083;-72
2022/04/08 06:22:52;;;;;;;1.50;0.50;;;18.30;47.50;;;;;;4539610;31;20131;-72
2022/04/08 06:25:20;;;;;;;1.38;0.45;;;18.30;47.50;;;;;;4539567;31;20087;-72
2022/04/08 06:27:56;;;;;;;1.95;0.40;;;18.20;47.40;;;;;;4525022;31;20217;-72
2022/04/08 06:30:22;;;;;;;1.55;0.60;;;18.30;47.50;;;;;;4539708;31;20241;-74
2022/04/08 06:32:48;;;;;;;2.92;0.73;;;18.30;47.50;;;;;;4539150;31;20068;-72
2022/04/08 06:35:14;;;;;;;1.30;0.50;;;18.20;47.50;;;;;;4539705;31;20080;-71
2022/04/08 06:37:40;;;;;;;2.92;0.60;;;18.20;47.60;;;;;;4539158;31;20160;-71
2022/04/08 06:40:08;;;;;;;1.48;0.40;;;18.20;47.60;;;;;;4539099;31;20080;-71
2022/04/08 06:42:35;;;;;;;1.95;0.60;;;18.20;47.60;;;;;;4538697;31;20056;-71
2022/04/08 06:45:01;;;;;;;1.83;0.60;;;18.20;47.60;;;;;;4538913;31;20152;-72
2022/04/08 06:47:27;;;;;;;3.40;0.70;;;18.20;47.60;;;;;;4538838;31;20590;-72
2022/04/08 06:49:53;;;;;;;3.20;0.75;;;18.20;47.50;;;;;;4539534;31;20080;-72
2022/04/08 06:52:19;;;;;;;2.80;0.60;;;18.20;47.60;;;;;;4528904;31;20143;-70
2022/04/08 06:54:46;;;;;;;3.53;0.90;;;18.20;47.70;;;;;;4537399;31;20094;-71
2022/04/08 06:57:12;;;;;;;3.78;0.88;;;18.20;47.50;;;;;;4538532;31;20467;-71
2022/04/08 06:59:40;;;;;;;3.50;0.93;;;18.20;47.40;;;;;;4524094;31;20127;-71
2022/04/08 07:02:06;;;;;;;2.08;0.65;;;18.20;47.20;;;;;;4538208;31;20510;-71
2022/04/08 07:04:32;;;;;;;7.60;1.50;;;18.20;47.00;;;;;;4510825;31;20091;-72
2022/04/08 07:06:58;;;;;;;4.30;0.90;;;18.10;47.10;;;;;;4539365;31;20064;-71
2022/04/08 07:09:24;;;;;;;5.18;0.85;;;18.10;47.30;;;;;;4539447;31;20068;-72
2022/04/08 07:11:50;;;;;;;5.05;1.00;;;18.10;47.50;;;;;;4539098;31;20177;-71
2022/04/08 07:14:16;;;;;;;5.20;0.93;;;18.10;47.50;;;;;;4539410;31;20076;-72
2022/04/08 07:16:43;;;;;;;4.90;0.95;;;18.10;47.50;;;;;;4524467;31;20083;-73
2022/04/08 07:19:12;;;;;;;3.65;0.80;;;18.10;47.60;;;;;;4524728;31;20060;-71
2022/04/08 07:21:38;;;;;;;3.40;0.90;;;18.10;47.60;;;;;;4541346;31;20159;-72
2022/04/08 07:24:05;;;;;;;2.22;0.70;;;18.10;47.60;;;;;;4542055;31;20169;-72
2022/04/08 07:26:31;;;;;;;3.97;0.90;;;18.20;47.70;;;;;;4541891;31;20135;-72
2022/04/08 07:28:57;;;;;;;4.63;0.90;;;18.20;47.70;;;;;;4527677;31;20214;-72
2022/04/08 07:31:23;;;;;;;2.58;1.00;;;18.30;47.60;;;;;;4527033;31;20064;-72
2022/04/08 07:33:48;;;;;;;2.15;0.68;;;18.40;47.60;;;;;;4514106;31;20087;-72
2022/04/08 07:36:15;;;;;;;2.47;0.50;;;18.50;47.40;;;;;;4541792;31;20068;-72
2022/04/08 07:38:41;;;;;;;2.42;0.85;;;18.60;47.30;;;;;;4527367;31;20596;-72
2022/04/08 07:41:07;;;;;;;2.47;0.77;;;18.70;47.10;;;;;;4541973;31;20072;-72
2022/04/08 07:43:32;;;;;;;4.38;0.80;;;18.80;46.90;;;;;;4541854;31;20111;-72
2022/04/08 07:45:58;;;;;;;4.70;0.60;;;18.90;46.80;;;;;;4541691;31;20293;-72
2022/04/08 07:48:24;;;;;;;5.07;0.95;;;19.00;46.60;;;;;;4541430;31;20508;-72
2022/04/08 07:50:50;;;;;;;2.53;0.65;;;19.20;46.40;;;;;;4526965;31;20152;-71
2022/04/08 07:53:16;;;;;;;3.13;0.88;;;19.20;47.20;;;;;;4526796;31;20090;-72
2022/04/08 07:55:42;;;;;;;4.35;0.93;;;19.40;46.20;;;;;;4541362;31;20099;-72
2022/04/08 07:58:08;;;;;;;4.18;0.65;;;19.50;46.10;;;;;;4527075;31;20379;-72
2022/04/08 08:00:34;;;;;;;3.55;0.90;;;19.60;45.90;;;;;;4513903;31;20151;-72
2022/04/08 08:03:00;;;;;;;4.78;0.82;;;19.70;45.80;;;;;;4540883;31;20383;-72
2022/04/08 08:05:30;;;;;;;5.20;0.70;;;19.80;45.60;;;;;;4541594;31;20072;-72
2022/04/08 08:07:58;;;;;;;3.90;1.02;;;19.90;45.40;;;;;;4526761;31;20520;-72
2022/04/08 08:10:25;;;;;;;3.17;0.98;;;20.10;45.40;;;;;;4541024;31;20064;-71
2022/04/08 08:12:52;;;;;;;7.32;0.90;;;20.20;45.30;;;;;;4541210;31;20089;-72
2022/04/08 08:15:19;;;;;;;3.90;0.90;;;20.30;45.20;;;;;;4526706;31;20080;-72
2022/04/08 08:17:46;;;;;;;3.65;0.80;;;20.30;45.00;;;;;;4540883;31;20226;-71
2022/04/08 08:20:14;;;;;;;2.95;0.82;;;20.40;45.00;;;;;;4526984;31;20084;-72
2022/04/08 08:22:41;;;;;;;3.42;0.70;;;20.50;44.90;;;;;;4540834;31;20216;-71
2022/04/08 08:25:07;;;;;;;5.47;0.73;;;20.50;44.80;;;;;;4540852;31;20087;-71
2022/04/08 08:27:45;;;;;;;4.93;0.70;;;20.60;44.70;;;;;;4541159;31;20095;-71
2022/04/08 08:30:14;;;;;;;5.07;0.70;;;20.60;44.70;;;;;;4541234;31;20156;-71
2022/04/08 08:32:43;;;;;;;1.55;0.57;;;20.70;44.60;;;;;;4540320;31;20168;-71
2022/04/08 08:35:10;;;;;;;1.83;0.65;;;20.70;44.50;;;;;;4540865;31;20112;-71
2022/04/08 08:37:36;;;;;;;4.05;0.73;;;20.70;44.50;;;;;;4532008;31;20101;-71
2022/04/08 08:40:07;;;;;;;2.63;0.88;;;20.80;44.30;;;;;;4538773;31;20156;-70
2022/04/08 08:42:38;;;;;;;3.70;0.80;;;20.80;44.00;;;;;;4539570;31;20100;-71
2022/04/08 08:45:05;;;;;;;3.35;0.98;;;20.80;43.80;;;;;;4523429;31;20080;-71
2022/04/08 08:47:31;;;;;;;5.63;0.93;;;20.80;43.70;;;;;;4538196;31;20091;-71
2022/04/08 08:49:57;;;;;;;4.30;1.40;;;20.80;43.60;;;;;;4539566;31;20071;-71
2022/04/08 08:52:24;;;;;;;3.33;0.90;;;20.70;43.40;;;;;;4539824;31;20086;-71
2022/04/08 08:54:51;;;;;;;4.75;1.10;;;20.60;43.30;;;;;;4524960;31;20631;-72
2022/04/08 08:57:19;;;;;;;3.47;0.90;;;20.50;43.30;;;;;;4525455;31;20164;-71
2022/04/08 08:59:46;;;;;;;4.93;0.95;;;20.50;43.40;;;;;;4540094;31;20060;-71
2022/04/08 09:02:17;;;;;;;5.50;0.80;;;20.40;43.50;;;;;;4540117;31;20161;-71
2022/04/08 09:04:44;;;;;;;4.28;1.13;;;20.30;43.50;;;;;;4526024;31;20222;-71
2022/04/08 09:07:32;;;;;;;5.43;1.00;;;20.20;43.50;;;;;;4540330;31;20190;-70
2022/04/08 09:09:58;;;;;;;6.30;1.33;;;20.10;43.60;;;;;;4527392;31;20063;-71
2022/04/08 09:12:31;;;;;;;5.18;0.95;;;20.10;44.00;;;;;;4540327;31;20087;-71
2022/04/08 09:14:58;;;;;;;5.35;1.00;;;20.00;44.00;;;;;;4540635;31;20083;-71
2022/04/08 09:17:27;;;;;;;6.70;1.10;;;19.90;44.10;;;;;;4525700;31;20199;-70
2022/04/08 09:19:55;;;;;;;6.43;0.98;;;19.90;44.20;;;;;;4540466;31;20088;-70
2022/04/08 09:22:29;;;;;;;3.55;0.85;;;19.80;44.40;;;;;;4540411;31;20102;-71
2022/04/08 09:25:05;;;;;;;3.15;0.95;;;19.80;44.60;;;;;;4535448;31;20069;-70
2022/04/08 09:27:34;;;;;;;4.00;0.70;;;19.80;44.80;;;;;;4527522;31;20068;-70
2022/04/08 09:30:00;;;;;;;2.88;0.82;;;19.80;45.00;;;;;;4520088;31;20135;-70
2022/04/08 09:32:28;;;;;;;3.13;0.77;;;19.80;45.20;;;;;;4523453;31;20493;-70
2022/04/08 09:34:53;;;;;;;2.67;0.82;;;19.70;45.20;;;;;;4538952;31;20179;-71
2022/04/08 09:37:19;;;;;;;3.10;0.80;;;19.70;45.40;;;;;;4538946;31;20561;-69
2022/04/08 09:40:04;;;;;;;2.28;0.52;;;19.70;45.50;;;;;;4525740;31;20620;-70
2022/04/08 09:42:47;;;;;;;3.72;0.73;;;19.70;45.60;;;;;;4539137;31;20143;-70
2022/04/08 09:45:14;;;;;;;4.47;1.00;;;19.60;45.70;;;;;;4538568;31;20098;-70
2022/04/08 09:47:41;;;;;;;3.55;0.70;;;19.60;45.80;;;;;;4525588;31;20170;-70
2022/04/08 09:50:11;;;;;;;2.63;0.75;;;19.60;45.90;;;;;;4538772;31;20409;-71
2022/04/08 09:52:40;;;;;;;3.70;0.80;;;19.60;46.00;;;;;;4524685;31;20119;-70
2022/04/08 09:55:09;;;;;;;3.17;0.70;;;19.50;46.00;;;;;;4538810;31;20072;-70
2022/04/08 09:57:38;;;;;;;3.28;0.95;;;19.50;46.10;;;;;;4538768;31;20174;-70
2022/04/08 10:00:05;;;;;;;2.92;0.60;;;19.50;46.20;;;;;;4538667;31;20088;-71
2022/04/08 10:02:35;;;;;;;3.72;0.82;;;19.50;46.20;;;;;;4538376;31;20087;-70
2022/04/08 10:05:02;;;;;;;3.28;0.77;;;19.50;46.30;;;;;;4531711;31;20080;-71
2022/04/08 10:07:29;;;;;;;5.10;1.00;;;19.40;46.30;;;;;;4523814;31;20080;-69
2022/04/08 10:10:18;;;;;;;5.95;0.70;;;19.40;46.30;;;;;;4538921;31;20134;-69
2022/04/08 10:13:00;;;;;;;5.78;0.80;;;19.40;46.30;;;;;;4515274;31;20111;-71
2022/04/08 10:16:04;;;;;;;2.72;0.63;;;19.40;46.30;;;;;;4539709;31;20064;-70
2022/04/08 10:18:50;;;;;;;1.83;0.60;;;19.40;46.20;;;;;;4458065;32;20101;-70
2022/04/08 10:21:16;;;;;;;3.30;0.90;;;19.40;46.30;;;;;;4445793;32;20081;-70
2022/04/08 10:23:49;;;;;;;2.28;0.70;;;19.30;46.30;;;;;;4507448;31;20167;-70
2022/04/08 10:26:20;;;;;;;4.00;0.70;;;19.30;46.20;;;;;;4539421;31;20509;-71
2022/04/08 10:28:46;;;;;;;5.45;0.90;;;19.30;46.20;;;;;;4539515;31;20131;-70
2022/04/08 10:31:15;;;;;;;3.15;0.70;;;19.30;46.20;;;;;;4524695;31;20088;-70
2022/04/08 10:33:47;;;;;;;1.50;0.50;;;19.20;46.10;;;;;;4539178;31;20091;-70
2022/04/08 10:36:13;;;;;;;3.22;0.85;;;19.30;46.10;;;;;;4525441;31;20536;-70
2022/04/08 10:38:39;;;;;;;1.50;0.50;;;19.20;46.00;;;;;;4525065;31;20073;-70
2022/04/08 10:41:08;;;;;;;4.13;1.05;;;19.20;45.90;;;;;;4524801;31;20078;-70
2022/04/08 10:43:52;;;;;;;3.78;0.82;;;19.20;45.90;;;;;;4539924;31;20194;-70
2022/04/08 10:46:32;;;;;;;3.53;0.75;;;19.20;45.70;;;;;;4539348;31;20078;-70
2022/04/08 10:48:58;;;;;;;5.20;0.82;;;19.10;45.70;;;;;;4539201;31;20080;-70
2022/04/08 10:51:29;;;;;;;4.22;0.95;;;19.10;45.80;;;;;;4524902;31;20087;-70
2022/04/08 10:54:03;;;;;;;3.58;0.90;;;19.10;45.70;;;;;;4539250;31;20442;-70
2022/04/08 10:56:34;;;;;;;2.67;0.77;;;19.10;45.60;;;;;;4541633;31;20513;-71
2022/04/08 10:59:01;;;;;;;4.13;0.70;;;19.10;45.60;;;;;;4542382;31;20262;-69
2022/04/08 11:01:27;;;;;;;3.28;0.90;;;19.10;45.50;;;;;;4542382;31;20064;-69
2022/04/08 11:03:55;;;;;;;5.57;1.02;;;19.10;45.50;;;;;;4542313;31;20110;-69
2022/04/08 11:06:24;;;;;;;4.07;0.60;;;19.10;45.50;;;;;;4542299;31;20139;-69
2022/04/08 11:08:50;;;;;;;3.58;0.80;;;19.00;45.50;;;;;;4542154;31;20131;-69
2022/04/08 11:11:26;;;;;;;8.32;0.90;;;19.00;45.50;;;;;;4542388;31;20087;-69
2022/04/08 11:13:59;;;;;;;4.20;1.10;;;19.00;45.40;;;;;;4542182;31;20484;-69
2022/04/08 11:16:31;;;;;;;3.07;0.90;;;19.00;45.40;;;;;;4542388;31;20647;-69
2022/04/08 11:18:58;;;;;;;3.37;0.77;;;19.00;45.40;;;;;;4542312;31;20338;-69
2022/04/08 11:21:24;;;;;;;5.43;0.85;;;19.00;45.50;;;;;;4527477;31;20208;-68
2022/04/08 11:24:02;;;;;;;3.80;0.90;;;19.00;45.60;;;;;;4542184;31;20791;-69
2022/04/08 11:26:29;;;;;;;6.00;0.90;;;19.00;45.60;;;;;;4542319;31;20127;-69
2022/04/08 11:29:13;;;;;;;3.33;0.80;;;19.00;45.70;;;;;;4527248;31;20064;-69
2022/04/08 11:31:39;;;;;;;3.80;0.75;;;19.00;45.70;;;;;;4542010;31;20080;-70
2022/04/08 11:34:06;;;;;;;5.18;1.13;;;18.90;45.80;;;;;;4500165;31;20084;-69
2022/04/08 11:36:32;;;;;;;5.22;0.98;;;18.90;45.90;;;;;;4539828;31;20086;-69
2022/04/08 11:38:58;;;;;;;7.10;0.80;;;18.90;46.00;;;;;;4534815;31;20559;-69
2022/04/08 11:41:25;;;;;;;4.00;1.20;;;18.90;46.10;;;;;;4524496;31;20206;-69
2022/04/08 11:43:52;;;;;;;5.85;0.90;;;18.90;46.20;;;;;;4529053;31;20230;-69
2022/04/08 11:46:18;;;;;;;5.70;1.10;;;18.90;46.20;;;;;;4524395;31;20184;-70
2022/04/08 11:48:44;;;;;;;5.45;1.23;;;18.90;46.30;;;;;;4527846;31;20065;-69
2022/04/08 11:51:10;;;;;;;7.43;1.13;;;18.90;46.40;;;;;;4531993;31;20119;-70
2022/04/08 11:53:51;;;;;;;7.10;1.50;;;18.90;46.60;;;;;;4525348;31;20131;-70
2022/04/08 11:56:20;;;;;;;3.83;1.17;;;18.90;46.70;;;;;;4524508;31;20079;-70
2022/04/08 11:59:01;;;;;;;5.20;1.05;;;18.90;46.70;;;;;;4524333;31;20202;-70
2022/04/08 12:01:32;;;;;;;7.40;0.93;;;18.90;46.70;;;;;;4534299;31;20076;-70
2022/04/08 12:04:00;;;;;;;2.78;1.05;;;18.90;46.80;;;;;;4538560;31;20096;-69
2022/04/08 12:06:39;;;;;;;5.18;0.80;;;18.80;46.60;;;;;;4540283;31;20060;-70
2022/04/08 12:09:05;;;;;;;4.32;1.15;;;18.80;46.50;;;;;;4540826;31;20688;-69
2022/04/08 12:11:34;;;;;;;6.90;1.13;;;18.80;46.60;;;;;;4540794;31;20702;-69
2022/04/08 12:14:00;;;;;;;4.10;1.10;;;18.80;46.70;;;;;;4535391;31;20096;-70
2022/04/08 12:16:30;;;;;;;4.22;1.10;;;18.80;46.80;;;;;;4510059;31;20198;-71
2022/04/08 12:18:57;;;;;;;3.85;1.00;;;18.80;46.70;;;;;;4525391;31;20098;-70
2022/04/08 12:21:28;;;;;;;3.67;0.88;;;18.80;46.70;;;;;;4524310;31;20660;-70
2022/04/08 12:23:57;;;;;;;7.35;1.52;;;18.80;46.70;;;;;;4539607;31;20226;-70
2022/04/08 12:26:28;;;;;;;2.30;0.85;;;18.80;46.70;;;;;;4529390;31;20076;-70
2022/04/08 12:29:07;;;;;;;7.18;0.98;;;18.80;46.60;;;;;;4532824;31;20147;-70
2022/04/08 12:31:44;;;;;;;3.72;0.70;;;18.80;46.50;;;;;;4540120;31;20502;-70
2022/04/08 12:34:10;;;;;;;4.45;1.23;;;18.80;46.50;;;;;;4527055;31;20133;-69
2022/04/08 12:36:37;;;;;;;5.97;1.00;;;18.90;46.40;;;;;;4540700;31;20090;-69
2022/04/08 12:39:04;;;;;;;3.03;0.82;;;18.90;46.10;;;;;;4540678;31;20076;-69
2022/04/08 12:41:29;;;;;;;4.63;1.10;;;19.00;45.90;;;;;;4540625;31;20068;-69
2022/04/08 12:43:57;;;;;;;2.67;0.82;;;19.10;45.60;;;;;;4540541;31;20092;-68
2022/04/08 12:46:23;;;;;;;3.25;0.85;;;19.20;45.30;;;;;;4540476;31;20429;-68
2022/04/08 12:48:49;;;;;;;4.13;1.08;;;19.30;45.10;;;;;;4540344;31;20406;-69
2022/04/08 12:51:15;;;;;;;5.97;1.15;;;19.40;44.80;;;;;;4540346;31;20072;-68